Time;durP1;ratioP1;P1;durP2;ratioP2;P2;SDS_P1;SDS_P2;PMS_P1;PMS_P2;Temp;Humidity;BMP_temperature;BMP_pressure;BME280_temperature;BME280_humidity;BME280_pressure;Samples;Min_cycle;Max_cycle;Signal;HPM_P1;HPM_P2
2022/04/12 00:00:00;;;;;;;5.38;3.75;;;11.10;59.00;;;;;;5053586;28;20036;-40
2022/04/12 00:02:29;;;;;;;6.28;4.40;;;11.10;59.00;;;;;;5053823;28;20417;-40
2022/04/12 00:04:54;;;;;;;5.90;4.13;;;11.10;59.00;;;;;;5053578;28;20040;-41
2022/04/12 00:07:20;;;;;;;5.50;4.10;;;11.10;59.00;;;;;;5019215;28;20021;-40
2022/04/12 00:09:46;;;;;;;5.53;3.45;;;11.10;59.00;;;;;;5053316;28;20025;-40
2022/04/12 00:12:15;;;;;;;5.53;4.20;;;11.10;59.00;;;;;;5053630;28;20487;-41
2022/04/12 00:14:41;;;;;;;5.85;3.88;;;11.00;59.00;;;;;;5053747;28;20379;-40
2022/04/12 00:19:50;;;;;;;5.82;3.80;;;11.10;59.00;;;;;;5053468;28;20047;-40
2022/04/12 00:22:16;;;;;;;5.75;3.85;;;11.00;59.10;;;;;;5052946;28;20041;-39
2022/04/12 00:24:42;;;;;;;5.88;3.85;;;11.00;59.10;;;;;;5053130;28;20032;-39
2022/04/12 00:27:07;;;;;;;7.90;4.25;;;10.90;59.10;;;;;;5053173;28;20471;-39
2022/04/12 00:29:33;;;;;;;6.10;4.05;;;10.90;59.10;;;;;;5052954;28;20108;-38
2022/04/12 00:31:59;;;;;;;5.78;4.15;;;10.90;59.10;;;;;;5053332;28;20048;-40
2022/04/12 00:34:25;;;;;;;5.05;3.75;;;10.90;59.20;;;;;;5053282;28;20476;-40
2022/04/12 00:36:50;;;;;;;6.30;4.20;;;10.90;59.20;;;;;;5053101;28;20025;-40
2022/04/12 00:39:16;;;;;;;5.55;3.80;;;10.90;59.30;;;;;;5052969;28;20543;-40
2022/04/12 00:41:42;;;;;;;5.57;3.90;;;10.90;59.30;;;;;;5052892;28;20472;-39
2022/04/12 00:44:08;;;;;;;5.22;3.97;;;10.90;59.30;;;;;;5052810;28;20040;-40
2022/04/12 00:46:34;;;;;;;6.60;4.00;;;10.90;59.30;;;;;;5053053;28;20041;-40
2022/04/12 00:49:00;;;;;;;5.55;4.13;;;10.90;59.30;;;;;;5053032;28;20411;-38
2022/04/12 00:51:27;;;;;;;4.63;4.00;;;10.80;59.30;;;;;;5052833;28;20387;-41
2022/04/12 00:53:52;;;;;;;4.60;3.78;;;10.80;59.30;;;;;;5053559;28;20020;-39
2022/04/12 00:56:18;;;;;;;4.85;3.83;;;10.80;59.30;;;;;;5057202;28;20029;-38
2022/04/12 00:58:48;;;;;;;6.30;3.70;;;10.80;59.40;;;;;;5039265;28;20029;-40
2022/04/12 01:01:14;;;;;;;6.28;3.67;;;10.80;59.40;;;;;;5057062;28;20039;-39
2022/04/12 01:03:39;;;;;;;6.28;3.63;;;10.70;59.40;;;;;;5057079;28;20108;-40
2022/04/12 01:06:06;;;;;;;6.30;3.90;;;10.70;59.50;;;;;;5056789;28;20037;-39
2022/04/12 01:08:32;;;;;;;5.82;3.67;;;10.70;59.50;;;;;;5056857;28;20436;-39
2022/04/12 01:11:04;;;;;;;5.28;3.80;;;10.70;59.60;;;;;;5056657;28;20036;-40
2022/04/12 01:13:29;;;;;;;4.30;3.53;;;10.70;59.70;;;;;;5056852;28;20519;-40
2022/04/12 01:15:55;;;;;;;4.97;3.90;;;10.60;59.70;;;;;;5056744;28;20064;-39
2022/04/12 01:18:21;;;;;;;5.18;3.65;;;10.60;59.70;;;;;;5056371;28;20097;-38
2022/04/12 01:20:46;;;;;;;6.65;4.07;;;10.60;59.70;;;;;;5056721;28;20040;-39
2022/04/12 01:23:20;;;;;;;5.93;3.65;;;10.60;59.70;;;;;;5056309;28;20049;-39
2022/04/12 01:25:46;;;;;;;6.50;3.80;;;10.50;59.70;;;;;;5056384;28;20052;-40
2022/04/12 01:28:11;;;;;;;4.88;3.90;;;10.60;59.70;;;;;;5056350;28;20033;-38
2022/04/12 01:30:37;;;;;;;3.75;3.17;;;10.50;59.60;;;;;;5056319;28;20402;-40
2022/04/12 01:33:04;;;;;;;5.30;4.10;;;10.50;59.70;;;;;;5056196;28;20029;-40
2022/04/12 01:35:30;;;;;;;4.90;3.58;;;10.50;59.70;;;;;;5056335;28;20491;-39
2022/04/12 01:37:56;;;;;;;5.07;3.70;;;10.40;59.70;;;;;;5056338;28;20033;-39
2022/04/12 01:40:22;;;;;;;5.85;3.67;;;10.40;59.70;;;;;;5056486;28;20033;-39
2022/04/12 01:42:47;;;;;;;4.68;3.42;;;10.40;59.70;;;;;;5056156;28;20391;-40
2022/04/12 01:45:13;;;;;;;5.93;3.67;;;10.40;59.70;;;;;;5056044;28;20111;-39
2022/04/12 01:47:39;;;;;;;5.82;3.70;;;10.40;59.80;;;;;;5056002;28;20094;-38
2022/04/12 01:50:06;;;;;;;4.68;3.80;;;10.40;59.80;;;;;;5055845;28;20025;-39
2022/04/12 01:52:33;;;;;;;5.38;3.55;;;10.40;59.80;;;;;;5056268;28;20108;-37
2022/04/12 01:54:58;;;;;;;4.35;3.70;;;10.40;59.90;;;;;;5038073;28;20108;-39
2022/04/12 01:57:24;;;;;;;4.50;3.42;;;10.30;59.80;;;;;;5055798;28;20123;-38
2022/04/12 01:59:49;;;;;;;5.57;4.00;;;10.30;59.80;;;;;;5055886;28;20033;-37
2022/04/12 02:02:15;;;;;;;5.32;3.97;;;10.30;59.80;;;;;;5055775;28;20103;-39
2022/04/12 02:04:41;;;;;;;4.90;3.47;;;10.30;60.00;;;;;;5055230;28;20067;-39
2022/04/12 02:07:07;;;;;;;4.80;3.40;;;10.30;60.00;;;;;;5055602;28;20071;-37
2022/04/12 02:09:33;;;;;;;4.55;3.33;;;10.30;60.00;;;;;;5055531;28;20033;-39
2022/04/12 02:11:59;;;;;;;3.92;3.28;;;10.20;60.00;;;;;;5055659;28;20082;-37
2022/04/12 02:14:24;;;;;;;5.22;3.45;;;10.20;60.00;;;;;;5055769;28;20482;-40
2022/04/12 02:16:50;;;;;;;4.43;3.63;;;10.30;60.00;;;;;;5055440;28;20102;-40
2022/04/12 02:19:16;;;;;;;5.43;3.75;;;10.20;60.00;;;;;;5055468;28;20056;-40
2022/04/12 02:21:42;;;;;;;4.75;3.70;;;10.20;60.00;;;;;;5055612;28;20061;-39
2022/04/12 02:24:08;;;;;;;4.47;3.45;;;10.20;60.00;;;;;;5055747;28;20040;-40
2022/04/12 02:26:34;;;;;;;5.97;3.75;;;10.20;60.00;;;;;;5055545;28;20468;-40
2022/04/12 02:28:59;;;;;;;4.57;3.45;;;10.20;60.00;;;;;;5055590;28;20475;-40
2022/04/12 02:31:25;;;;;;;5.18;3.50;;;10.20;60.00;;;;;;5055157;28;20037;-39
2022/04/12 02:33:50;;;;;;;5.35;3.42;;;10.20;60.60;;;;;;5055363;28;20024;-39
2022/04/12 02:36:16;;;;;;;4.97;3.60;;;10.10;59.90;;;;;;5055315;28;20079;-39
2022/04/12 02:38:42;;;;;;;4.93;3.65;;;10.10;60.00;;;;;;5055116;28;20383;-39
2022/04/12 02:41:07;;;;;;;5.25;3.22;;;10.20;60.00;;;;;;5054971;28;20586;-39
2022/04/12 02:43:34;;;;;;;5.53;3.28;;;10.10;60.00;;;;;;5055177;28;20059;-39
2022/04/12 02:46:01;;;;;;;4.28;3.28;;;10.20;60.00;;;;;;5055225;28;20395;-37
2022/04/12 02:48:27;;;;;;;4.80;3.78;;;10.20;60.00;;;;;;5055219;28;20021;-38
2022/04/12 02:50:53;;;;;;;5.55;3.45;;;10.20;60.00;;;;;;5054953;28;20456;-50
2022/04/12 02:53:18;;;;;;;3.97;3.10;;;10.10;59.90;;;;;;5036801;28;20494;-39
2022/04/12 02:55:44;;;;;;;4.53;3.00;;;10.20;60.00;;;;;;5054986;28;20029;-40
2022/04/12 02:58:09;;;;;;;4.63;3.53;;;10.20;60.00;;;;;;5054915;28;20098;-39
2022/04/12 03:00:35;;;;;;;4.60;3.13;;;10.10;60.00;;;;;;5037136;28;20020;-41
2022/04/12 03:03:01;;;;;;;4.93;3.35;;;10.10;60.00;;;;;;5054657;28;20151;-38
2022/04/12 03:05:26;;;;;;;4.57;3.30;;;10.10;60.00;;;;;;5054819;28;20090;-38
2022/04/12 03:07:52;;;;;;;5.70;3.55;;;10.10;60.00;;;;;;5054637;28;20035;-39
2022/04/12 03:10:17;;;;;;;3.40;2.95;;;10.10;60.10;;;;;;5054450;28;20035;-38
2022/04/12 03:12:43;;;;;;;4.13;3.17;;;10.10;60.10;;;;;;5054661;28;20029;-38
2022/04/12 03:15:09;;;;;;;5.22;3.47;;;10.10;60.10;;;;;;5054466;28;20029;-39
2022/04/12 03:17:35;;;;;;;4.43;3.20;;;10.00;60.20;;;;;;5053941;28;20536;-39
2022/04/12 03:20:00;;;;;;;6.22;3.40;;;10.00;60.20;;;;;;5054447;28;20060;-39
2022/04/12 03:22:26;;;;;;;5.38;3.38;;;10.00;60.20;;;;;;5053974;28;20043;-41
2022/04/12 03:24:52;;;;;;;4.43;3.30;;;10.00;60.30;;;;;;5054463;28;20033;-39
2022/04/12 03:27:17;;;;;;;5.47;3.53;;;10.00;60.40;;;;;;5054232;28;20025;-39
2022/04/12 03:29:43;;;;;;;4.10;3.10;;;9.90;60.30;;;;;;5054090;28;20029;-39
2022/04/12 03:32:09;;;;;;;5.22;3.40;;;9.90;60.30;;;;;;5054251;28;20029;-40
2022/04/12 03:34:36;;;;;;;4.18;3.20;;;9.90;60.40;;;;;;5054161;28;20025;-39
2022/04/12 03:37:01;;;;;;;4.18;3.17;;;9.90;61.10;;;;;;5054169;28;20036;-39
2022/04/12 03:39:27;;;;;;;4.97;3.25;;;9.90;60.60;;;;;;5054148;28;20033;-39
2022/04/12 03:41:53;;;;;;;4.45;3.10;;;9.80;60.50;;;;;;5054181;28;20056;-39
2022/04/12 03:44:18;;;;;;;4.60;3.40;;;9.80;60.60;;;;;;5054040;28;20407;-38
2022/04/12 03:46:44;;;;;;;4.70;3.30;;;9.80;60.60;;;;;;5054114;28;20029;-39
2022/04/12 03:49:13;;;;;;;4.40;2.90;;;9.80;60.70;;;;;;5053671;28;20029;-39
2022/04/12 03:51:38;;;;;;;6.28;3.20;;;9.70;60.70;;;;;;5053614;28;20036;-40
2022/04/12 03:54:04;;;;;;;4.65;3.33;;;9.70;60.80;;;;;;5053677;28;20032;-40
2022/04/12 03:56:31;;;;;;;6.70;3.08;;;9.70;60.80;;;;;;5053598;28;20033;-40
2022/04/12 03:58:58;;;;;;;4.95;3.60;;;9.70;60.90;;;;;;5053569;28;20029;-39
2022/04/12 04:01:28;;;;;;;5.30;3.60;;;9.70;60.90;;;;;;5053758;28;20048;-39
2022/04/12 04:03:55;;;;;;;5.40;3.50;;;9.60;60.90;;;;;;5053539;28;20490;-39
2022/04/12 04:06:21;;;;;;;4.65;3.22;;;9.70;61.00;;;;;;5053419;28;20103;-38
2022/04/12 04:08:46;;;;;;;4.38;3.00;;;9.60;61.00;;;;;;5053483;28;20079;-39
2022/04/12 04:11:12;;;;;;;4.90;3.28;;;9.60;61.00;;;;;;5053295;28;20083;-40
2022/04/12 04:13:37;;;;;;;6.47;3.40;;;9.60;61.10;;;;;;5053237;28;20228;-54
2022/04/12 04:16:04;;;;;;;4.18;2.85;;;9.60;61.10;;;;;;5053289;28;20028;-38
2022/04/12 04:18:30;;;;;;;4.43;3.05;;;9.60;61.10;;;;;;5053226;28;20067;-39
2022/04/12 04:20:55;;;;;;;3.97;3.22;;;9.60;61.10;;;;;;5053102;28;20380;-38
2022/04/12 04:23:21;;;;;;;5.18;3.03;;;9.60;61.20;;;;;;5035222;28;20064;-39
2022/04/12 04:25:47;;;;;;;5.07;3.38;;;9.60;61.30;;;;;;5053105;28;20025;-45
2022/04/12 04:28:13;;;;;;;4.35;3.30;;;9.60;61.30;;;;;;5035439;28;20025;-39
2022/04/12 04:30:44;;;;;;;3.53;3.10;;;9.50;61.30;;;;;;5053055;28;20029;-39
2022/04/12 04:33:10;;;;;;;5.25;3.35;;;9.50;61.30;;;;;;5052929;28;20032;-39
2022/04/12 04:35:36;;;;;;;4.25;3.10;;;9.50;61.40;;;;;;5053093;28;20059;-45
2022/04/12 04:38:02;;;;;;;4.82;3.63;;;9.50;61.40;;;;;;5053109;28;20037;-37
2022/04/12 04:40:28;;;;;;;4.65;3.15;;;9.60;61.50;;;;;;5052947;28;20036;-40
2022/04/12 04:42:54;;;;;;;7.47;3.42;;;9.60;61.40;;;;;;5053177;28;20104;-40
2022/04/12 04:45:20;;;;;;;4.13;2.92;;;9.60;61.40;;;;;;5053318;28;20021;-40
2022/04/12 04:47:51;;;;;;;3.95;3.17;;;9.60;61.40;;;;;;5052890;28;20464;-40
2022/04/12 04:50:21;;;;;;;4.55;3.40;;;9.60;61.40;;;;;;5052745;28;20040;-40
2022/04/12 04:52:47;;;;;;;5.93;3.67;;;9.60;61.40;;;;;;5052940;28;20025;-40
2022/04/12 04:55:14;;;;;;;4.13;3.35;;;9.60;61.40;;;;;;5053042;28;20086;-39
2022/04/12 04:57:43;;;;;;;4.25;3.53;;;9.60;61.40;;;;;;5053116;28;20017;-39
2022/04/12 05:00:18;;;;;;;5.40;3.13;;;9.60;61.60;;;;;;5052741;28;20029;-44
2022/04/12 05:02:47;;;;;;;5.20;3.53;;;9.60;61.60;;;;;;5053042;28;20025;-39
2022/04/12 05:05:14;;;;;;;4.82;3.33;;;9.60;61.70;;;;;;5052907;28;20021;-42
2022/04/12 05:07:42;;;;;;;5.30;3.63;;;9.70;61.60;;;;;;5052774;28;20021;-40
2022/04/12 05:10:09;;;;;;;5.15;3.33;;;9.70;61.50;;;;;;5052673;28;20021;-40
2022/04/12 05:12:34;;;;;;;4.88;3.40;;;9.70;61.50;;;;;;5053101;28;20353;-39
2022/04/12 05:15:00;;;;;;;4.85;3.33;;;9.70;61.50;;;;;;5052832;28;20032;-40
2022/04/12 05:17:27;;;;;;;5.53;3.38;;;9.70;61.50;;;;;;5052727;28;20423;-39
2022/04/12 05:19:53;;;;;;;4.88;3.72;;;9.70;62.10;;;;;;5052719;28;20492;-40
2022/04/12 05:22:19;;;;;;;6.15;3.28;;;9.80;61.50;;;;;;5052525;28;20037;-40
2022/04/12 05:24:46;;;;;;;5.30;3.58;;;9.80;61.50;;;;;;5052518;28;20025;-39
2022/04/12 05:27:11;;;;;;;4.93;3.53;;;9.80;61.40;;;;;;5052596;28;20017;-38
2022/04/12 05:29:37;;;;;;;5.05;3.50;;;9.80;61.30;;;;;;5052547;28;20078;-40
2022/04/12 05:32:04;;;;;;;4.75;3.20;;;9.90;61.40;;;;;;5052385;28;20028;-38
2022/04/12 05:34:29;;;;;;;4.28;3.25;;;9.80;61.40;;;;;;5052489;28;20490;-40
2022/04/12 05:36:55;;;;;;;4.93;3.67;;;9.90;61.40;;;;;;5052424;28;20096;-38
2022/04/12 05:39:20;;;;;;;7.10;3.42;;;9.90;61.30;;;;;;5052591;28;20013;-40
2022/04/12 05:41:46;;;;;;;5.47;3.63;;;9.90;61.30;;;;;;5056080;28;20032;-40
2022/04/12 05:44:11;;;;;;;4.05;3.45;;;9.90;61.30;;;;;;5056172;28;20025;-42
2022/04/12 05:46:37;;;;;;;4.18;3.30;;;10.00;61.30;;;;;;5056111;28;20104;-40
2022/04/12 05:49:03;;;;;;;6.15;3.50;;;10.00;61.30;;;;;;5055881;28;20360;-46
2022/04/12 05:51:28;;;;;;;4.13;3.30;;;10.00;61.20;;;;;;5056011;28;20021;-40
2022/04/12 05:53:54;;;;;;;5.15;3.20;;;10.00;61.30;;;;;;5038342;28;20044;-39
2022/04/12 05:56:19;;;;;;;4.45;3.30;;;10.10;61.40;;;;;;5056334;28;20055;-39
2022/04/12 05:58:45;;;;;;;4.60;3.65;;;10.10;61.30;;;;;;5038008;28;20071;-39
2022/04/12 06:01:11;;;;;;;5.70;3.80;;;10.10;61.30;;;;;;5037826;28;20021;-46
2022/04/12 06:03:36;;;;;;;5.47;3.28;;;10.20;61.20;;;;;;5037564;28;20445;-38
2022/04/12 06:06:02;;;;;;;5.50;3.75;;;10.20;61.10;;;;;;5055308;28;20111;-38
2022/04/12 06:08:28;;;;;;;4.70;2.95;;;10.20;61.10;;;;;;5055090;28;20029;-38
2022/04/12 06:10:53;;;;;;;5.07;3.53;;;10.30;61.40;;;;;;5055442;28;20391;-39
2022/04/12 06:13:19;;;;;;;9.60;4.47;;;10.30;61.30;;;;;;5055206;28;20025;-39
2022/04/12 06:15:45;;;;;;;5.00;3.58;;;10.30;61.30;;;;;;5055423;28;20009;-38
2022/04/12 06:18:10;;;;;;;4.45;3.72;;;10.30;61.40;;;;;;5055372;28;20488;-39
2022/04/12 06:20:36;;;;;;;4.53;3.50;;;10.30;61.50;;;;;;5055244;28;20502;-39
2022/04/12 06:23:03;;;;;;;4.72;3.50;;;10.30;61.50;;;;;;5054922;28;20385;-38
2022/04/12 06:25:28;;;;;;;7.50;3.38;;;10.20;61.60;;;;;;5054952;28;20032;-47
2022/04/12 06:27:54;;;;;;;6.82;3.83;;;10.20;62.20;;;;;;5054995;28;20399;-44
2022/04/12 06:30:22;;;;;;;4.95;3.67;;;10.20;62.20;;;;;;5054876;28;20025;-39
2022/04/12 06:32:49;;;;;;;6.50;3.50;;;10.20;62.10;;;;;;5037217;28;20057;-39
2022/04/12 06:35:15;;;;;;;8.40;3.58;;;10.20;62.10;;;;;;5055397;28;20407;-39
2022/04/12 06:37:43;;;;;;;3.83;3.30;;;10.20;62.10;;;;;;5055033;28;20016;-40
2022/04/12 06:40:11;;;;;;;4.57;3.80;;;10.20;62.10;;;;;;5055220;28;20453;-40
2022/04/12 06:42:37;;;;;;;6.63;4.25;;;10.20;62.20;;;;;;5055064;28;20025;-39
2022/04/12 06:45:04;;;;;;;5.90;3.88;;;10.20;62.20;;;;;;5054649;28;20050;-40
2022/04/12 06:47:29;;;;;;;5.75;3.60;;;10.20;62.40;;;;;;5054697;28;20100;-39
2022/04/12 06:49:55;;;;;;;6.22;4.28;;;10.20;62.40;;;;;;5054630;28;20109;-39
2022/04/12 06:52:22;;;;;;;5.18;3.88;;;10.20;62.80;;;;;;5054538;28;20017;-39
2022/04/12 06:54:48;;;;;;;5.00;4.00;;;10.30;62.80;;;;;;5054792;28;20107;-39
2022/04/12 06:57:14;;;;;;;4.38;3.50;;;10.30;62.80;;;;;;5054646;28;20021;-38
2022/04/12 06:59:40;;;;;;;5.03;3.95;;;10.40;62.80;;;;;;5054407;28;20025;-39
2022/04/12 07:02:06;;;;;;;6.55;3.75;;;10.40;62.80;;;;;;5054544;28;20025;-38
2022/04/12 07:04:32;;;;;;;5.03;3.72;;;10.40;62.60;;;;;;5036336;28;20143;-40
2022/04/12 07:06:58;;;;;;;6.53;4.32;;;10.50;62.60;;;;;;5054456;28;20458;-40
2022/04/12 07:09:27;;;;;;;4.97;3.97;;;10.50;62.60;;;;;;5054469;28;20025;-40
2022/04/12 07:11:53;;;;;;;7.65;4.50;;;10.60;62.60;;;;;;5054486;28;20029;-40
2022/04/12 07:14:19;;;;;;;5.07;3.97;;;10.60;62.50;;;;;;5054235;28;20025;-40
2022/04/12 07:16:45;;;;;;;5.97;3.83;;;10.60;62.40;;;;;;5054166;28;20028;-40
2022/04/12 07:19:10;;;;;;;5.28;4.10;;;10.60;62.50;;;;;;5054143;28;20025;-40
2022/04/12 07:21:36;;;;;;;7.57;3.80;;;10.70;62.50;;;;;;5053970;28;20112;-40
2022/04/12 07:24:05;;;;;;;7.70;4.00;;;10.70;62.40;;;;;;5053967;28;20083;-39
2022/04/12 07:26:31;;;;;;;6.05;4.00;;;10.80;62.30;;;;;;5053960;28;20392;-40
2022/04/12 07:28:57;;;;;;;5.63;4.10;;;10.90;62.30;;;;;;5054235;28;20049;-40
2022/04/12 07:31:23;;;;;;;9.25;4.40;;;10.90;62.20;;;;;;5053921;28;20116;-40
2022/04/12 07:33:49;;;;;;;8.20;4.68;;;11.00;62.20;;;;;;5053911;28;20075;-39
2022/04/12 07:36:17;;;;;;;6.40;4.05;;;11.10;62.20;;;;;;5053647;28;20035;-40
2022/04/12 07:38:43;;;;;;;5.65;3.70;;;11.20;62.20;;;;;;5053863;28;20060;-39
2022/04/12 07:41:09;;;;;;;6.18;3.97;;;11.20;62.70;;;;;;5053861;28;20064;-41
2022/04/12 07:43:35;;;;;;;5.70;4.30;;;11.30;63.30;;;;;;5053799;28;20017;-40
2022/04/12 07:46:01;;;;;;;6.13;3.95;;;11.40;63.70;;;;;;5053860;28;20024;-38
2022/04/12 07:48:26;;;;;;;4.60;3.88;;;11.50;63.40;;;;;;5053848;28;20105;-39
2022/04/12 07:50:52;;;;;;;5.47;3.50;;;11.60;63.30;;;;;;5053718;28;20029;-39
2022/04/12 07:53:18;;;;;;;5.60;4.18;;;11.60;63.80;;;;;;5053576;28;20083;-39
2022/04/12 07:55:43;;;;;;;7.20;4.70;;;11.70;65.00;;;;;;5053780;28;20021;-40
2022/04/12 07:58:09;;;;;;;7.72;4.47;;;11.80;64.40;;;;;;5053503;28;20029;-40
2022/04/12 08:00:35;;;;;;;4.93;4.05;;;11.90;63.70;;;;;;5035779;28;20163;-43
2022/04/12 08:03:01;;;;;;;6.18;4.20;;;12.00;64.00;;;;;;5053265;28;20048;-39
2022/04/12 08:05:26;;;;;;;5.75;4.32;;;12.10;64.10;;;;;;5053230;28;20388;-40
2022/04/12 08:07:52;;;;;;;5.88;4.30;;;12.10;64.10;;;;;;5053179;28;20096;-40
2022/04/12 08:10:18;;;;;;;7.25;4.18;;;12.20;64.40;;;;;;5053343;28;20025;-39
2022/04/12 08:12:46;;;;;;;6.85;4.30;;;12.30;63.90;;;;;;5053079;28;20468;-40
2022/04/12 08:15:14;;;;;;;8.43;4.45;;;12.40;63.50;;;;;;5035096;28;20526;-38
2022/04/12 08:17:40;;;;;;;5.75;4.15;;;12.60;63.40;;;;;;5053225;28;20101;-40
2022/04/12 08:20:06;;;;;;;7.40;4.38;;;12.70;63.20;;;;;;5052943;28;20480;-39
2022/04/12 08:22:35;;;;;;;6.43;4.10;;;12.80;63.10;;;;;;5052926;28;20114;-39
2022/04/12 08:25:00;;;;;;;5.72;3.65;;;12.90;62.80;;;;;;5053298;28;20021;-39
2022/04/12 08:27:26;;;;;;;5.90;3.88;;;13.10;63.30;;;;;;5052906;28;20432;-39
2022/04/12 08:29:52;;;;;;;7.50;3.58;;;13.20;62.70;;;;;;5035131;28;20025;-41
2022/04/12 08:32:18;;;;;;;3.72;2.78;;;13.30;63.10;;;;;;5052853;28;20024;-39
2022/04/12 08:34:45;;;;;;;4.20;3.45;;;13.40;63.20;;;;;;5053066;28;20464;-40
2022/04/12 08:37:11;;;;;;;6.05;3.53;;;13.60;63.20;;;;;;5052787;28;20025;-40
2022/04/12 08:39:36;;;;;;;4.75;3.17;;;13.60;62.90;;;;;;5052727;28;20017;-40
2022/04/12 08:42:03;;;;;;;5.25;3.58;;;13.70;63.00;;;;;;5052725;28;20162;-40
2022/04/12 08:44:30;;;;;;;4.50;3.25;;;13.80;62.80;;;;;;5052668;28;20052;-40
2022/04/12 08:46:56;;;;;;;4.55;3.30;;;13.90;62.60;;;;;;5052521;28;20029;-39
2022/04/12 08:49:26;;;;;;;4.57;3.30;;;14.00;62.80;;;;;;5052633;28;20068;-39
2022/04/12 08:51:52;;;;;;;5.38;3.38;;;14.10;62.10;;;;;;5052655;28;20108;-40
2022/04/12 08:54:18;;;;;;;4.13;3.10;;;14.20;62.50;;;;;;5052649;28;20639;-40
2022/04/12 08:56:46;;;;;;;5.32;3.13;;;14.20;62.30;;;;;;5052624;28;20062;-40
2022/04/12 08:59:12;;;;;;;4.47;3.28;;;14.30;62.80;;;;;;5052480;28;20057;-40
2022/04/12 09:01:39;;;;;;;4.95;3.65;;;14.40;62.30;;;;;;5052472;28;20059;-40
2022/04/12 09:04:05;;;;;;;5.55;3.53;;;14.40;61.90;;;;;;5034614;28;20021;-40
2022/04/12 09:06:30;;;;;;;5.60;3.53;;;14.50;61.50;;;;;;5052324;28;20541;-39
2022/04/12 09:09:11;;;;;;;4.95;3.13;;;14.60;61.30;;;;;;5052248;28;20464;-38
2022/04/12 09:11:39;;;;;;;5.80;3.65;;;14.70;61.40;;;;;;5052095;28;20029;-38
2022/04/12 09:14:04;;;;;;;4.65;3.28;;;14.70;61.30;;;;;;5052380;28;20059;-39
2022/04/12 09:16:30;;;;;;;4.72;3.40;;;14.80;60.90;;;;;;5055891;28;20545;-39
2022/04/12 09:18:56;;;;;;;6.88;4.05;;;14.80;61.10;;;;;;5056358;28;20032;-40
2022/04/12 09:21:24;;;;;;;5.65;3.83;;;14.90;60.80;;;;;;5055980;28;20020;-37
2022/04/12 09:23:52;;;;;;;5.72;3.53;;;14.90;60.70;;;;;;5056122;28;20029;-40
2022/04/12 09:26:24;;;;;;;5.70;3.55;;;15.00;60.60;;;;;;5038371;28;20029;-39
2022/04/12 09:28:52;;;;;;;5.23;3.13;;;15.10;60.70;;;;;;5056204;28;20144;-39
2022/04/12 09:31:19;;;;;;;5.80;3.60;;;15.10;60.80;;;;;;5055990;28;20291;-39
2022/04/12 09:33:47;;;;;;;6.50;3.55;;;15.30;60.80;;;;;;5056069;28;20013;-39
2022/04/12 09:36:13;;;;;;;6.93;3.65;;;15.30;60.90;;;;;;5055999;28;20021;-39
2022/04/12 09:38:40;;;;;;;3.85;2.88;;;15.40;60.50;;;;;;5055991;28;20493;-42
2022/04/12 09:41:25;;;;;;;4.18;3.03;;;15.50;60.50;;;;;;5038022;28;20061;-40
2022/04/12 09:43:54;;;;;;;6.10;3.50;;;15.60;60.40;;;;;;5055923;28;20151;-38
2022/04/12 09:46:21;;;;;;;4.80;3.38;;;15.60;60.10;;;;;;5056073;28;20463;-39
2022/04/12 09:48:48;;;;;;;7.65;4.40;;;15.70;60.00;;;;;;5055724;28;20029;-38
2022/04/12 09:51:16;;;;;;;6.45;3.70;;;15.70;59.80;;;;;;5055809;28;20048;-39
2022/04/12 09:53:45;;;;;;;5.22;3.95;;;15.80;59.70;;;;;;5055547;28;20619;-40
2022/04/12 09:56:15;;;;;;;6.28;4.13;;;15.90;59.70;;;;;;5055683;28;20017;-40
2022/04/12 09:58:44;;;;;;;5.72;3.08;;;16.00;59.50;;;;;;5055835;28;20044;-39
2022/04/12 10:01:10;;;;;;;3.65;2.60;;;16.10;59.70;;;;;;5055466;28;20456;-39
2022/04/12 10:03:37;;;;;;;4.53;3.22;;;16.20;59.90;;;;;;5037534;28;20017;-39
2022/04/12 10:06:05;;;;;;;6.32;3.92;;;16.20;59.70;;;;;;5055651;28;20021;-39
2022/04/12 10:08:34;;;;;;;4.90;3.17;;;16.30;59.50;;;;;;5055423;28;20025;-39
2022/04/12 10:11:00;;;;;;;5.20;3.75;;;16.40;59.40;;;;;;5055746;28;20025;-39
2022/04/12 10:13:28;;;;;;;8.65;3.60;;;16.40;59.10;;;;;;5055316;28;20120;-38
2022/04/12 10:15:55;;;;;;;4.35;3.10;;;16.50;59.10;;;;;;5055264;28;20040;-39
2022/04/12 10:18:21;;;;;;;5.93;3.70;;;16.60;59.10;;;;;;5055346;28;20017;-38
2022/04/12 10:20:47;;;;;;;6.38;3.35;;;16.70;58.90;;;;;;5055396;28;20162;-38
2022/04/12 10:23:18;;;;;;;4.25;3.08;;;16.80;58.70;;;;;;5054840;28;20564;-39
2022/04/12 10:25:48;;;;;;;5.20;3.33;;;16.90;58.50;;;;;;5054721;28;20040;-39
2022/04/12 10:28:14;;;;;;;4.70;3.20;;;17.00;58.30;;;;;;5055048;28;20388;-39
2022/04/12 10:30:40;;;;;;;4.22;2.65;;;17.00;58.30;;;;;;5054957;28;20039;-41
2022/04/12 10:33:08;;;;;;;3.72;2.70;;;17.10;58.30;;;;;;5055224;28;20025;-39
2022/04/12 10:35:43;;;;;;;4.25;3.05;;;17.10;58.10;;;;;;5054893;28;20116;-39
2022/04/12 10:38:19;;;;;;;5.78;3.35;;;17.30;57.90;;;;;;5054915;28;20083;-39
2022/04/12 10:40:51;;;;;;;5.22;2.95;;;17.30;57.60;;;;;;5054760;28;20029;-38
2022/04/12 10:43:33;;;;;;;4.03;2.60;;;17.40;57.70;;;;;;5055052;28;20395;-40
2022/04/12 10:46:06;;;;;;;4.63;3.10;;;17.40;57.50;;;;;;5054978;28;20351;-38
2022/04/12 10:48:33;;;;;;;4.93;2.97;;;17.50;57.40;;;;;;5054889;28;20192;-39
2022/04/12 10:51:01;;;;;;;6.18;3.10;;;17.60;57.30;;;;;;5054605;28;20360;-39
2022/04/12 10:53:38;;;;;;;5.38;3.30;;;17.70;57.10;;;;;;5054556;28;20067;-38
2022/04/12 10:56:15;;;;;;;5.82;3.40;;;17.80;56.90;;;;;;5054645;28;20025;-39
2022/04/12 10:58:41;;;;;;;4.75;3.08;;;17.90;56.80;;;;;;5054581;28;20108;-39
2022/04/12 11:01:12;;;;;;;2.70;2.03;;;18.00;56.80;;;;;;5054627;28;20025;-39
2022/04/12 11:03:40;;;;;;;3.78;2.88;;;18.10;56.60;;;;;;5054655;28;20025;-40
2022/04/12 11:06:26;;;;;;;4.15;2.83;;;18.10;56.50;;;;;;5054500;28;20033;-39
2022/04/12 11:08:54;;;;;;;3.38;2.13;;;18.20;56.00;;;;;;5054278;28;20036;-38
2022/04/12 11:11:44;;;;;;;4.45;2.20;;;18.30;56.00;;;;;;5054616;28;20380;-40
2022/04/12 11:14:38;;;;;;;2.58;1.73;;;18.40;55.80;;;;;;5054493;28;20392;-40
2022/04/12 11:17:08;;;;;;;5.18;2.45;;;18.50;55.60;;;;;;5054543;28;20024;-39
2022/04/12 11:19:45;;;;;;;2.70;2.10;;;18.60;55.50;;;;;;5036345;28;20487;-40
2022/04/12 11:22:13;;;;;;;2.95;2.03;;;18.70;55.20;;;;;;5054024;28;20133;-39
2022/04/12 11:24:39;;;;;;;4.60;2.60;;;18.70;55.10;;;;;;5054096;28;20530;-38
2022/04/12 11:27:10;;;;;;;4.95;2.50;;;18.80;55.00;;;;;;5054200;28;20471;-40
2022/04/12 11:29:40;;;;;;;3.63;2.30;;;18.80;54.80;;;;;;5053881;28;20110;-38
2022/04/12 11:32:08;;;;;;;2.65;1.90;;;18.80;54.90;;;;;;5054141;28;20419;-39
2022/04/12 11:34:36;;;;;;;2.67;2.10;;;18.80;55.00;;;;;;5053766;28;20048;-40
2022/04/12 11:37:05;;;;;;;5.32;2.70;;;18.80;54.70;;;;;;5054180;28;20056;-39
2022/04/12 11:39:33;;;;;;;3.38;2.35;;;18.90;54.60;;;;;;5053357;28;20036;-40
2022/04/12 11:42:05;;;;;;;3.67;2.13;;;18.90;54.50;;;;;;5053805;28;20028;-40
2022/04/12 11:44:31;;;;;;;3.65;2.40;;;19.10;54.30;;;;;;5035675;28;20032;-39
2022/04/12 11:47:04;;;;;;;4.03;2.72;;;19.20;54.00;;;;;;5053757;28;20025;-40
2022/04/12 11:49:33;;;;;;;2.38;1.90;;;19.40;53.70;;;;;;5053818;28;20025;-39
2022/04/12 11:52:00;;;;;;;2.72;1.80;;;19.50;53.60;;;;;;5053661;28;20479;-40
2022/04/12 11:54:34;;;;;;;3.15;1.83;;;19.60;53.40;;;;;;5053550;28;20036;-40
2022/04/12 11:57:13;;;;;;;2.47;1.33;;;19.70;53.20;;;;;;5053526;28;20060;-44
2022/04/12 11:59:51;;;;;;;2.38;1.75;;;19.80;53.00;;;;;;5035552;28;20083;-39
2022/04/12 12:02:22;;;;;;;2.00;1.63;;;19.80;52.70;;;;;;5053263;28;20095;-39
2022/04/12 12:04:50;;;;;;;3.15;2.17;;;19.80;52.70;;;;;;5053565;28;20464;-40
2022/04/12 12:07:17;;;;;;;2.47;1.77;;;19.90;52.50;;;;;;5053259;28;20411;-40
2022/04/12 12:09:53;;;;;;;2.95;1.98;;;20.00;52.50;;;;;;5053501;28;20401;-40
2022/04/12 12:12:19;;;;;;;2.45;1.90;;;20.00;52.20;;;;;;5053129;28;20033;-40
2022/04/12 12:14:45;;;;;;;2.05;1.40;;;20.10;52.20;;;;;;5053090;28;20021;-39
2022/04/12 12:17:18;;;;;;;2.00;1.30;;;20.20;52.10;;;;;;5035280;28;20021;-40
2022/04/12 12:19:46;;;;;;;;;;;20.20;51.90;;;;;;5054006;28;20025;-40
2022/04/12 12:22:14;;;;;;;2.50;1.88;;;20.20;51.90;;;;;;5052924;28;20008;-40
2022/04/12 12:24:54;;;;;;;2.75;1.75;;;20.30;51.80;;;;;;5053169;28;20526;-40
2022/04/12 12:27:50;;;;;;;2.85;2.10;;;20.40;51.40;;;;;;5052917;28;20025;-40
2022/04/12 12:30:20;;;;;;;2.17;1.60;;;20.40;51.40;;;;;;5032206;28;20041;-39
2022/04/12 12:32:45;;;;;;;2.97;1.63;;;20.40;51.30;;;;;;5052805;28;20028;-39
2022/04/12 12:35:14;;;;;;;4.35;2.40;;;20.40;51.20;;;;;;5052760;28;20025;-39
2022/04/12 12:37:41;;;;;;;2.70;1.90;;;20.40;51.10;;;;;;5052669;28;20472;-40
2022/04/12 12:40:26;;;;;;;2.38;1.63;;;20.50;51.20;;;;;;5034858;28;20017;-40
2022/04/12 12:42:54;;;;;;;4.05;1.98;;;20.50;51.00;;;;;;5052996;28;20384;-40
2022/04/12 12:45:21;;;;;;;2.83;2.00;;;20.50;50.90;;;;;;5052480;28;20056;-40
2022/04/12 12:47:57;;;;;;;2.10;1.90;;;20.50;50.80;;;;;;5052643;28;20487;-42
2022/04/12 12:50:27;;;;;;;3.50;2.13;;;20.50;51.40;;;;;;5052330;28;20534;-40